Time;durP1;ratioP1;P1;durP2;ratioP2;P2;SDS_P1;SDS_P2;PMS_P1;PMS_P2;Temp;Humidity;BMP_temperature;BMP_pressure;BME280_temperature;BME280_humidity;BME280_pressure;Samples;Min_cycle;Max_cycle;Signal;HPM_P1;HPM_P2
2022/11/13 00:02:21;;;;;;;20.13;14.67;;;;;;;;;;5025818;28;20190;-78
2022/11/13 00:05:06;;;;;;;20.38;14.93;;;;;;;;;;5020455;28;20455;-78
2022/11/13 00:07:51;;;;;;;17.87;13.50;;;;;;;;;;5027691;28;20202;-78
2022/11/13 00:10:36;;;;;;;22.67;15.63;;;;;;;;;;5029319;28;20166;-79
2022/11/13 00:13:20;;;;;;;20.50;14.37;;;;;;;;;;5027815;28;20248;-78
2022/11/13 00:16:06;;;;;;;19.13;13.60;;;;;;;;;;5028252;28;20289;-77
2022/11/13 00:18:51;;;;;;;19.87;13.90;;;;;;;;;;5028889;28;20179;-77
2022/11/13 00:21:36;;;;;;;22.53;14.93;;;;;;;;;;5012480;28;20177;-78
2022/11/13 00:24:21;;;;;;;21.70;15.30;;;;;;;;;;5025136;28;20249;-78
2022/11/13 00:27:05;;;;;;;24.50;16.00;;;;;;;;;;5028354;28;20294;-78
2022/11/13 00:29:50;;;;;;;21.73;15.47;;;;;;;;;;5013470;28;20193;-79
2022/11/13 00:32:36;;;;;;;26.37;18.13;;;;;;;;;;5020912;28;20174;-78
2022/11/13 00:35:21;;;;;;;28.57;18.70;;;;;;;;;;5022986;28;20274;-80
2022/11/13 00:38:06;;;;;;;25.17;16.93;;;;;;;;;;5023084;28;20189;-80
2022/11/13 00:40:51;;;;;;;28.47;18.00;;;;;;;;;;5011016;28;20205;-84
2022/11/13 00:43:36;;;;;;;25.40;17.67;;;;;;;;;;5017581;28;20178;-80
2022/11/13 00:46:21;;;;;;;27.40;18.93;;;;;;;;;;5013670;28;20206;-76
2022/11/13 00:49:06;;;;;;;26.27;16.73;;;;;;;;;;5023026;28;20681;-74
2022/11/13 00:51:51;;;;;;;23.30;16.80;;;;;;;;;;5022436;28;20170;-76
2022/11/13 00:54:36;;;;;;;35.43;17.10;;;;;;;;;;5022963;28;20655;-77
2022/11/13 00:57:21;;;;;;;24.00;16.20;;;;;;;;;;5027798;28;20167;-76
2022/11/13 01:00:06;;;;;;;24.47;16.40;;;;;;;;;;5025379;28;20236;-76
2022/11/13 01:02:51;;;;;;;26.00;15.77;;;;;;;;;;5023739;28;20174;-76
2022/11/13 01:05:36;;;;;;;21.87;15.47;;;;;;;;;;5026817;28;20210;-78
2022/11/13 01:08:21;;;;;;;20.43;15.30;;;;;;;;;;5025326;28;20190;-78
2022/11/13 01:11:13;;;;;;;20.33;14.87;;;;;;;;;;5024893;28;20261;-77
2022/11/13 01:13:58;;;;;;;22.17;14.80;;;;;;;;;;5027751;28;20194;-77
2022/11/13 01:16:43;;;;;;;23.50;14.87;;;;;;;;;;5026546;28;20252;-77
2022/11/13 01:19:28;;;;;;;24.70;15.37;;;;;;;;;;5027239;28;20182;-77
2022/11/13 01:22:13;;;;;;;25.40;15.30;;;;;;;;;;5032219;28;20579;-77
2022/11/13 01:24:57;;;;;;;24.67;16.00;;;;;;;;;;5027054;28;20201;-77
2022/11/13 01:27:42;;;;;;;22.63;15.13;;;;;;;;;;5027048;28;20240;-77
2022/11/13 01:30:27;;;;;;;21.47;14.87;;;;;;;;;;5025923;28;20220;-77
2022/11/13 01:33:12;;;;;;;29.30;15.73;;;;;;;;;;5027545;28;20174;-77
2022/11/13 01:36:05;;;;;;;21.10;15.20;;;;;;;;;;5026156;28;20749;-77
2022/11/13 01:38:50;;;;;;;29.20;15.50;;;;;;;;;;5026028;28;20606;-77
2022/11/13 01:41:35;;;;;;;26.80;15.17;;;;;;;;;;5025989;28;20252;-77
2022/11/13 01:44:20;;;;;;;27.47;15.33;;;;;;;;;;5007826;28;20715;-77
2022/11/13 01:47:05;;;;;;;28.57;16.70;;;;;;;;;;5025587;28;20218;-77
2022/11/13 01:49:52;;;;;;;22.93;15.00;;;;;;;;;;5022402;28;20579;-77
2022/11/13 01:52:38;;;;;;;31.07;15.60;;;;;;;;;;5027078;28;20665;-77
2022/11/13 01:55:22;;;;;;;24.57;14.20;;;;;;;;;;5007522;28;21074;-77
2022/11/13 01:58:08;;;;;;;34.00;14.80;;;;;;;;;;5024389;28;20193;-77
2022/11/13 02:00:53;;;;;;;26.30;15.33;;;;;;;;;;5025659;28;20275;-77
2022/11/13 02:03:38;;;;;;;45.60;16.07;;;;;;;;;;5028231;28;20557;-77
2022/11/13 02:06:23;;;;;;;21.40;13.87;;;;;;;;;;5030288;28;20202;-77
2022/11/13 02:09:09;;;;;;;20.20;14.10;;;;;;;;;;5023177;28;20786;-77
2022/11/13 02:11:54;;;;;;;39.87;15.13;;;;;;;;;;5030682;28;20555;-77
2022/11/13 02:14:40;;;;;;;26.60;15.40;;;;;;;;;;5030233;28;20190;-77
2022/11/13 02:17:45;;;;;;;30.50;14.87;;;;;;;;;;5027226;28;20178;-77
2022/11/13 02:20:34;;;;;;;30.73;15.07;;;;;;;;;;5030307;28;20173;-77
2022/11/13 02:23:22;;;;;;;24.97;16.00;;;;;;;;;;5029274;28;20199;-77
2022/11/13 02:26:08;;;;;;;18.20;13.60;;;;;;;;;;5030140;28;20297;-77
2022/11/13 02:28:53;;;;;;;19.70;13.83;;;;;;;;;;5028898;28;20205;-77
2022/11/13 02:31:38;;;;;;;24.53;14.27;;;;;;;;;;5050429;28;20170;-77
2022/11/13 02:34:23;;;;;;;19.63;12.73;;;;;;;;;;5013156;28;20170;-77
2022/11/13 02:37:07;;;;;;;17.97;13.17;;;;;;;;;;5010138;28;20302;-77
2022/11/13 02:39:52;;;;;;;22.80;14.67;;;;;;;;;;5025509;28;20232;-77
2022/11/13 02:42:37;;;;;;;25.17;14.50;;;;;;;;;;5022076;28;20697;-77
2022/11/13 02:45:22;;;;;;;16.47;12.23;;;;;;;;;;5029817;28;20301;-77
2022/11/13 02:48:08;;;;;;;20.10;13.60;;;;;;;;;;5021153;28;20273;-77
2022/11/13 02:50:52;;;;;;;27.53;14.57;;;;;;;;;;5030476;28;20177;-77
2022/11/13 02:53:37;;;;;;;20.27;13.47;;;;;;;;;;5030389;28;20158;-77
2022/11/13 02:56:22;;;;;;;17.60;13.60;;;;;;;;;;5029455;28;20195;-77
2022/11/13 02:59:07;;;;;;;19.73;13.70;;;;;;;;;;5030097;28;20181;-77
2022/11/13 03:01:52;;;;;;;18.67;13.03;;;;;;;;;;5029953;28;20646;-77
2022/11/13 03:04:37;;;;;;;17.00;13.23;;;;;;;;;;5030304;28;20217;-77
2022/11/13 03:07:22;;;;;;;20.83;13.57;;;;;;;;;;5014046;28;20740;-77
2022/11/13 03:10:07;;;;;;;27.30;14.03;;;;;;;;;;5019013;28;20562;-77
2022/11/13 03:12:52;;;;;;;29.63;12.70;;;;;;;;;;5021711;28;20290;-78
2022/11/13 03:15:37;;;;;;;31.43;13.50;;;;;;;;;;5029936;28;20235;-77
2022/11/13 03:18:22;;;;;;;15.20;11.57;;;;;;;;;;5029131;28;20194;-77
2022/11/13 03:21:08;;;;;;;26.33;12.53;;;;;;;;;;5029717;28;20552;-77
2022/11/13 03:23:53;;;;;;;19.00;12.47;;;;;;;;;;5030003;28;20645;-77
2022/11/13 03:26:38;;;;;;;18.33;12.10;;;;;;;;;;5027301;28;20700;-77
2022/11/13 03:29:23;;;;;;;13.83;10.80;;;;;;;;;;5027166;28;20320;-77
2022/11/13 03:32:08;;;;;;;13.10;10.13;;;;;;;;;;5029411;28;20175;-77
2022/11/13 03:34:53;;;;;;;18.10;10.77;;;;;;;;;;5029589;28;20182;-77
2022/11/13 03:37:38;;;;;;;13.53;10.20;;;;;;;;;;5029153;28;20649;-77
2022/11/13 03:40:23;;;;;;;16.20;11.63;;;;;;;;;;5010795;28;20274;-77
2022/11/13 03:43:08;;;;;;;14.83;10.73;;;;;;;;;;5020294;28;20169;-77
2022/11/13 03:45:53;;;;;;;13.40;10.60;;;;;;;;;;5028473;28;20206;-77
2022/11/13 03:48:38;;;;;;;17.47;11.30;;;;;;;;;;5014562;28;20213;-77
2022/11/13 03:51:23;;;;;;;19.67;12.13;;;;;;;;;;5009495;28;20171;-77
2022/11/13 03:54:08;;;;;;;20.40;12.70;;;;;;;;;;5014300;28;20179;-77
2022/11/13 03:56:53;;;;;;;36.10;14.43;;;;;;;;;;5014453;28;20703;-77
2022/11/13 03:59:38;;;;;;;38.13;14.13;;;;;;;;;;5028473;28;20655;-77
2022/11/13 04:02:22;;;;;;;20.03;14.10;;;;;;;;;;5027787;28;20208;-77
2022/11/13 04:05:08;;;;;;;35.67;15.43;;;;;;;;;;5028514;28;20217;-77
2022/11/13 04:07:53;;;;;;;40.00;16.37;;;;;;;;;;5028433;28;20565;-77
2022/11/13 04:10:38;;;;;;;45.00;17.37;;;;;;;;;;5027482;28;20737;-77
2022/11/13 04:13:22;;;;;;;47.17;17.77;;;;;;;;;;5028856;28;20197;-77
2022/11/13 04:16:07;;;;;;;35.33;17.77;;;;;;;;;;5027515;28;20721;-77
2022/11/13 04:18:52;;;;;;;58.13;20.20;;;;;;;;;;5028939;28;20167;-77
2022/11/13 04:21:37;;;;;;;34.57;19.17;;;;;;;;;;5028512;28;20221;-77
2022/11/13 04:24:22;;;;;;;48.50;20.17;;;;;;;;;;5028508;28;20719;-77
2022/11/13 04:27:07;;;;;;;25.67;16.20;;;;;;;;;;5026308;28;20209;-77
2022/11/13 04:29:52;;;;;;;33.63;16.67;;;;;;;;;;5028066;28;20197;-77
2022/11/13 04:32:37;;;;;;;27.63;15.70;;;;;;;;;;5026912;28;20173;-77
2022/11/13 04:35:22;;;;;;;28.40;16.17;;;;;;;;;;5028539;28;20252;-77
2022/11/13 04:38:07;;;;;;;35.60;17.87;;;;;;;;;;5027346;28;20777;-77
2022/11/13 04:42:47;;;;;;;26.37;15.57;;;;;;;;;;5027638;28;20190;-77
2022/11/13 04:43:56;;;;;;;22.90;14.67;;;;;;;;;;5028089;28;20178;-77
2022/11/13 04:46:41;;;;;;;38.10;16.87;;;;;;;;;;5015619;28;20206;-77
2022/11/13 04:49:26;;;;;;;23.40;14.63;;;;;;;;;;5028305;28;20188;-77
2022/11/13 04:52:11;;;;;;;22.50;13.90;;;;;;;;;;5027962;28;20174;-77
2022/11/13 04:54:56;;;;;;;28.03;13.93;;;;;;;;;;5026688;28;20186;-77
2022/11/13 04:57:41;;;;;;;22.50;13.50;;;;;;;;;;5020891;28;20813;-77
2022/11/13 05:00:26;;;;;;;23.57;13.30;;;;;;;;;;5027658;28;20205;-77
2022/11/13 05:03:11;;;;;;;25.63;13.47;;;;;;;;;;5027769;28;20193;-77
2022/11/13 05:06:06;;;;;;;23.33;13.13;;;;;;;;;;5019778;28;20248;-77
2022/11/13 05:08:51;;;;;;;20.53;12.30;;;;;;;;;;5014730;28;20228;-77
2022/11/13 05:11:36;;;;;;;30.40;13.50;;;;;;;;;;5032419;28;20232;-77
2022/11/13 05:14:20;;;;;;;19.07;12.97;;;;;;;;;;5027895;28;20185;-77
2022/11/13 05:17:06;;;;;;;19.60;12.30;;;;;;;;;;5027215;28;20252;-77
2022/11/13 05:19:51;;;;;;;20.43;12.47;;;;;;;;;;5026605;28;20571;-78
2022/11/13 05:22:35;;;;;;;18.80;11.13;;;;;;;;;;5028060;28;20167;-77
2022/11/13 05:25:20;;;;;;;17.17;11.83;;;;;;;;;;5031829;28;20217;-77
2022/11/13 05:28:05;;;;;;;15.97;11.47;;;;;;;;;;5014888;28;20214;-77
2022/11/13 05:30:50;;;;;;;33.33;13.47;;;;;;;;;;5022453;28;20248;-77
2022/11/13 05:33:35;;;;;;;33.97;14.60;;;;;;;;;;5027994;28;20170;-76
2022/11/13 05:36:20;;;;;;;25.77;14.10;;;;;;;;;;5027430;28;20213;-77
2022/11/13 05:39:05;;;;;;;37.57;15.00;;;;;;;;;;5013345;28;20213;-77
2022/11/13 05:41:50;;;;;;;41.57;15.20;;;;;;;;;;5031674;28;20213;-77
2022/11/13 05:44:34;;;;;;;30.53;13.60;;;;;;;;;;5030868;28;20217;-77
2022/11/13 05:47:19;;;;;;;41.53;14.43;;;;;;;;;;5029247;28;20221;-77
2022/11/13 05:50:04;;;;;;;47.87;14.53;;;;;;;;;;5031700;28;20691;-77
2022/11/13 05:52:49;;;;;;;40.87;14.97;;;;;;;;;;5031856;28;20166;-77
2022/11/13 05:55:34;;;;;;;55.90;13.57;;;;;;;;;;5031390;28;20190;-77
2022/11/13 05:58:19;;;;;;;49.53;13.97;;;;;;;;;;5029998;28;20302;-77
2022/11/13 06:01:06;;;;;;;111.57;16.97;;;;;;;;;;5020803;28;20240;-77
2022/11/13 06:03:51;;;;;;;118.67;17.53;;;;;;;;;;5027627;28;20270;-77
2022/11/13 06:06:36;;;;;;;81.93;14.63;;;;;;;;;;5030175;28;20225;-77
2022/11/13 06:09:21;;;;;;;87.23;14.50;;;;;;;;;;5031593;28;20173;-77
2022/11/13 06:12:06;;;;;;;57.33;16.93;;;;;;;;;;5031228;28;20192;-77
2022/11/13 06:14:51;;;;;;;63.27;15.20;;;;;;;;;;5030933;28;20209;-77
2022/11/13 06:17:36;;;;;;;92.90;16.00;;;;;;;;;;5030550;28;20213;-77
2022/11/13 06:20:21;;;;;;;39.50;12.27;;;;;;;;;;5033427;28;20186;-77
2022/11/13 06:23:06;;;;;;;41.50;12.30;;;;;;;;;;5021360;28;20302;-77
2022/11/13 06:25:51;;;;;;;44.70;12.93;;;;;;;;;;5027982;28;20326;-77
2022/11/13 06:28:36;;;;;;;81.33;15.00;;;;;;;;;;5019154;28;20198;-77
2022/11/13 06:31:22;;;;;;;99.13;16.53;;;;;;;;;;5030664;28;20178;-77
2022/11/13 06:34:07;;;;;;;37.50;11.83;;;;;;;;;;5030903;28;20216;-77
2022/11/13 06:36:52;;;;;;;68.10;15.73;;;;;;;;;;5028777;28;20284;-77
2022/11/13 06:39:37;;;;;;;34.43;12.37;;;;;;;;;;5028090;28;20220;-77
2022/11/13 06:42:22;;;;;;;71.80;14.90;;;;;;;;;;5014920;28;20198;-77
2022/11/13 06:45:07;;;;;;;27.73;12.07;;;;;;;;;;5037546;28;20186;-77
2022/11/13 06:47:53;;;;;;;31.03;11.10;;;;;;;;;;5025202;28;20242;-77
2022/11/13 06:50:38;;;;;;;15.17;10.17;;;;;;;;;;5030256;28;20166;-77
2022/11/13 06:53:23;;;;;;;40.43;11.97;;;;;;;;;;5031067;28;20253;-77
2022/11/13 06:56:08;;;;;;;37.77;12.33;;;;;;;;;;5029307;28;20328;-77
2022/11/13 06:58:54;;;;;;;43.87;12.83;;;;;;;;;;5020367;28;20225;-77
2022/11/13 07:01:39;;;;;;;53.17;14.73;;;;;;;;;;5029442;28;20179;-77
2022/11/13 07:04:24;;;;;;;65.17;16.17;;;;;;;;;;5030906;28;20182;-78
2022/11/13 07:07:09;;;;;;;58.00;15.87;;;;;;;;;;5029487;28;20229;-74
2022/11/13 07:09:54;;;;;;;73.03;17.10;;;;;;;;;;5026860;28;20680;-75
2022/11/13 07:12:40;;;;;;;21.13;13.80;;;;;;;;;;5014607;28;20189;-77
2022/11/13 07:15:25;;;;;;;37.50;14.30;;;;;;;;;;5025080;28;20202;-76
2022/11/13 07:18:10;;;;;;;24.20;12.40;;;;;;;;;;5026782;28;20642;-76
2022/11/13 07:20:54;;;;;;;45.53;15.27;;;;;;;;;;5026264;28;20248;-77
2022/11/13 07:23:42;;;;;;;31.50;13.50;;;;;;;;;;5037258;28;20186;-76
2022/11/13 07:26:26;;;;;;;17.30;12.90;;;;;;;;;;5024944;28;20636;-76
2022/11/13 07:29:11;;;;;;;29.40;13.37;;;;;;;;;;5029578;28;20580;-76
2022/11/13 07:31:56;;;;;;;78.57;16.13;;;;;;;;;;5027957;28;20178;-75
2022/11/13 07:34:41;;;;;;;56.90;16.23;;;;;;;;;;5020671;28;20190;-73
2022/11/13 07:37:26;;;;;;;16.23;12.07;;;;;;;;;;5024124;28;20214;-77
2022/11/13 07:40:11;;;;;;;103.00;19.73;;;;;;;;;;5029089;28;20549;-76
2022/11/13 07:42:59;;;;;;;55.83;17.00;;;;;;;;;;5029111;28;20643;-76
2022/11/13 07:45:44;;;;;;;79.30;19.10;;;;;;;;;;5028533;28;20210;-76
2022/11/13 07:48:29;;;;;;;84.23;18.87;;;;;;;;;;5028969;28;20202;-77
2022/11/13 07:51:14;;;;;;;25.40;12.93;;;;;;;;;;5025414;28;20185;-76
2022/11/13 07:53:59;;;;;;;20.70;12.80;;;;;;;;;;5026336;28;20182;-75
2022/11/13 07:56:46;;;;;;;71.23;16.50;;;;;;;;;;5016881;28;20240;-77
2022/11/13 07:59:30;;;;;;;92.43;16.77;;;;;;;;;;5023938;28;20300;-76
2022/11/13 08:02:16;;;;;;;32.30;13.40;;;;;;;;;;5024999;28;20186;-75
2022/11/13 08:05:01;;;;;;;30.93;14.40;;;;;;;;;;5027993;28;20213;-75
2022/11/13 08:07:47;;;;;;;25.67;13.53;;;;;;;;;;5022252;28;20194;-75
2022/11/13 08:10:32;;;;;;;25.70;12.93;;;;;;;;;;5025981;28;20189;-76
2022/11/13 08:13:16;;;;;;;29.57;12.93;;;;;;;;;;5028519;28;20170;-76
2022/11/13 08:16:02;;;;;;;24.80;12.63;;;;;;;;;;5029840;28;20813;-76
2022/11/13 08:18:47;;;;;;;19.27;12.57;;;;;;;;;;5034606;28;20233;-76
2022/11/13 08:21:32;;;;;;;23.63;14.17;;;;;;;;;;5028753;28;20665;-76
2022/11/13 08:24:17;;;;;;;52.80;15.53;;;;;;;;;;5032294;28;20203;-76
2022/11/13 08:27:02;;;;;;;40.03;15.17;;;;;;;;;;5019835;28;20210;-75
2022/11/13 08:29:47;;;;;;;24.23;13.60;;;;;;;;;;5016176;28;20205;-76
2022/11/13 08:32:32;;;;;;;31.47;13.83;;;;;;;;;;5026784;28;20187;-76
2022/11/13 08:35:17;;;;;;;33.10;13.70;;;;;;;;;;5028335;28;20213;-75
2022/11/13 08:38:02;;;;;;;14.27;10.93;;;;;;;;;;5024215;28;20192;-76
2022/11/13 08:40:47;;;;;;;67.33;13.97;;;;;;;;;;5020732;28;20277;-76
2022/11/13 08:43:31;;;;;;;36.57;13.20;;;;;;;;;;5024287;28;20189;-76
2022/11/13 08:46:16;;;;;;;38.97;13.40;;;;;;;;;;5017716;28;20277;-75
2022/11/13 08:49:01;;;;;;;31.90;14.03;;;;;;;;;;5018000;28;20301;-75
2022/11/13 08:51:47;;;;;;;17.10;12.30;;;;;;;;;;5022502;28;20206;-76
2022/11/13 08:54:32;;;;;;;30.93;12.70;;;;;;;;;;5022757;28;20185;-75
2022/11/13 08:57:17;;;;;;;18.20;12.03;;;;;;;;;;5020075;28;20202;-76
2022/11/13 09:00:04;;;;;;;65.77;14.70;;;;;;;;;;5025124;28;20186;-76
2022/11/13 09:02:53;;;;;;;42.47;13.67;;;;;;;;;;5023907;28;20214;-75
2022/11/13 09:05:38;;;;;;;14.20;11.57;;;;;;;;;;5025360;28;20360;-75
2022/11/13 09:08:23;;;;;;;23.30;12.20;;;;;;;;;;5023906;28;20212;-76
2022/11/13 09:11:08;;;;;;;18.07;11.97;;;;;;;;;;5023183;28;20251;-75
2022/11/13 09:13:53;;;;;;;15.83;11.03;;;;;;;;;;5023594;28;20174;-76
2022/11/13 09:16:38;;;;;;;34.80;11.97;;;;;;;;;;5022175;28;20206;-76
2022/11/13 09:19:23;;;;;;;40.37;12.80;;;;;;;;;;5024725;28;20222;-76
2022/11/13 09:22:08;;;;;;;13.10;10.63;;;;;;;;;;5020192;28;20550;-76
2022/11/13 09:24:53;;;;;;;46.93;14.00;;;;;;;;;;5025543;28;20662;-76
2022/11/13 09:27:38;;;;;;;42.80;13.90;;;;;;;;;;5023066;28;20396;-76
2022/11/13 09:30:23;;;;;;;24.40;12.97;;;;;;;;;;5020367;28;20190;-76
2022/11/13 09:33:09;;;;;;;27.73;13.73;;;;;;;;;;5024120;28;20186;-76
2022/11/13 09:35:54;;;;;;;18.00;13.33;;;;;;;;;;5024141;28;20215;-76
2022/11/13 09:38:39;;;;;;;32.43;14.60;;;;;;;;;;5026082;28;20186;-76
2022/11/13 09:41:27;;;;;;;41.93;17.27;;;;;;;;;;5023397;28;20531;-75
2022/11/13 09:44:21;;;;;;;22.07;12.77;;;;;;;;;;5021571;28;20270;-76
2022/11/13 09:47:17;;;;;;;24.43;13.40;;;;;;;;;;5020681;28;20234;-76
2022/11/13 09:50:10;;;;;;;19.80;13.50;;;;;;;;;;5024292;28;20251;-77
2022/11/13 09:52:55;;;;;;;22.27;11.67;;;;;;;;;;5021186;28;20624;-76
2022/11/13 09:55:45;;;;;;;19.10;12.50;;;;;;;;;;5022491;28;20206;-76
2022/11/13 09:58:43;;;;;;;18.37;12.53;;;;;;;;;;5022508;28;20182;-77
2022/11/13 10:01:49;;;;;;;15.10;11.60;;;;;;;;;;5022062;28;20974;-76
2022/11/13 10:04:53;;;;;;;13.53;11.00;;;;;;;;;;5039530;28;20217;-76
2022/11/13 10:07:42;;;;;;;21.30;12.03;;;;;;;;;;5025357;28;20214;-76
2022/11/13 10:10:42;;;;;;;26.70;14.03;;;;;;;;;;5023376;28;20179;-76
2022/11/13 10:13:30;;;;;;;16.50;11.57;;;;;;;;;;5020419;28;20305;-76
2022/11/13 10:16:27;;;;;;;24.57;11.27;;;;;;;;;;5022843;28;20199;-76
2022/11/13 10:19:12;;;;;;;12.57;11.07;;;;;;;;;;5022128;28;20175;-76
2022/11/13 10:22:14;;;;;;;10.13;9.03;;;;;;;;;;5022557;28;20194;-76
2022/11/13 10:25:03;;;;;;;15.63;10.53;;;;;;;;;;5023569;28;20278;-76
2022/11/13 10:28:01;;;;;;;15.50;11.53;;;;;;;;;;5028522;28;20344;-75
2022/11/13 10:30:46;;;;;;;15.70;10.43;;;;;;;;;;5028420;28;20274;-76
2022/11/13 10:33:31;;;;;;;14.37;10.80;;;;;;;;;;5024472;28;20206;-77
2022/11/13 10:36:32;;;;;;;17.17;10.47;;;;;;;;;;5017771;28;20217;-75
2022/11/13 10:39:17;;;;;;;16.83;11.20;;;;;;;;;;5021855;28;20193;-75
2022/11/13 10:42:02;;;;;;;11.23;10.03;;;;;;;;;;5029041;28;20189;-76
2022/11/13 10:44:55;;;;;;;20.33;12.57;;;;;;;;;;5025196;28;20827;-75
2022/11/13 10:47:43;;;;;;;12.60;11.30;;;;;;;;;;5035355;28;20249;-81
2022/11/13 10:50:30;;;;;;;12.10;10.10;;;;;;;;;;5024109;28;20189;-83
2022/11/13 10:53:16;;;;;;;15.77;12.10;;;;;;;;;;5027630;28;20265;-75
2022/11/13 10:56:00;;;;;;;12.77;11.27;;;;;;;;;;5027836;28;20785;-75
2022/11/13 10:58:58;;;;;;;12.83;10.73;;;;;;;;;;5025836;28;20182;-76
2022/11/13 11:01:44;;;;;;;10.70;9.37;;;;;;;;;;5027898;28;20179;-75
2022/11/13 11:04:29;;;;;;;11.80;10.27;;;;;;;;;;5028132;28;20190;-75
2022/11/13 11:07:19;;;;;;;11.63;10.40;;;;;;;;;;5028607;28;20677;-75
2022/11/13 11:10:06;;;;;;;12.47;10.60;;;;;;;;;;5023493;28;20325;-74
2022/11/13 11:12:52;;;;;;;14.17;12.13;;;;;;;;;;5029536;28;20270;-74
2022/11/13 11:15:43;;;;;;;14.37;12.37;;;;;;;;;;5027353;28;20747;-75
2022/11/13 11:18:49;;;;;;;14.57;11.90;;;;;;;;;;5029721;28;20190;-75
2022/11/13 11:21:36;;;;;;;13.27;11.87;;;;;;;;;;5027454;28;20194;-75
2022/11/13 11:24:24;;;;;;;13.57;12.17;;;;;;;;;;5030133;28;20202;-75
2022/11/13 11:27:14;;;;;;;16.00;13.37;;;;;;;;;;5027012;28;21149;-75
2022/11/13 11:30:05;;;;;;;15.33;12.60;;;;;;;;;;5025322;28;20190;-75
2022/11/13 11:32:55;;;;;;;14.27;12.47;;;;;;;;;;5027841;28;20236;-75
2022/11/13 11:35:44;;;;;;;15.30;13.70;;;;;;;;;;5026250;28;20209;-75
2022/11/13 11:38:32;;;;;;;15.97;14.27;;;;;;;;;;5032533;28;20193;-75
2022/11/13 11:41:19;;;;;;;14.23;12.73;;;;;;;;;;5025346;28;20179;-78
2022/11/13 11:44:11;;;;;;;16.33;14.63;;;;;;;;;;5022327;28;20688;-74
2022/11/13 11:46:56;;;;;;;15.73;12.37;;;;;;;;;;5018408;28;20277;-75
2022/11/13 11:49:42;;;;;;;12.17;10.87;;;;;;;;;;5032410;28;20190;-74
2022/11/13 11:52:30;;;;;;;16.17;11.07;;;;;;;;;;5008908;28;20187;-75
2022/11/13 11:55:17;;;;;;;12.97;11.53;;;;;;;;;;5012928;28;20186;-74
2022/11/13 11:58:17;;;;;;;17.47;13.47;;;;;;;;;;5017866;28;20183;-75
2022/11/13 12:01:12;;;;;;;17.77;12.30;;;;;;;;;;5023635;28;20633;-75
2022/11/13 12:04:04;;;;;;;12.97;10.63;;;;;;;;;;5028839;28;20185;-74
2022/11/13 12:06:55;;;;;;;13.23;11.70;;;;;;;;;;5019738;28;20228;-75
2022/11/13 12:09:47;;;;;;;11.53;10.33;;;;;;;;;;5010249;28;20661;-78
2022/11/13 12:12:41;;;;;;;12.90;11.47;;;;;;;;;;5021606;28;20225;-78
2022/11/13 12:15:40;;;;;;;11.73;10.17;;;;;;;;;;5013343;28;20238;-78
2022/11/13 12:18:35;;;;;;;12.23;10.77;;;;;;;;;;5017052;28;20305;-78
2022/11/13 12:21:26;;;;;;;16.83;13.17;;;;;;;;;;5030885;28;20828;-78
2022/11/13 12:24:17;;;;;;;18.40;13.20;;;;;;;;;;5021733;28;20189;-78
2022/11/13 12:27:17;;;;;;;19.47;14.17;;;;;;;;;;5025519;28;20218;-78
2022/11/13 12:30:15;;;;;;;19.90;14.30;;;;;;;;;;5022161;28;20325;-78
2022/11/13 12:33:08;;;;;;;15.13;12.60;;;;;;;;;;5012969;28;20190;-78
2022/11/13 12:35:53;;;;;;;15.00;12.47;;;;;;;;;;5020662;28;20238;-79
2022/11/13 12:38:48;;;;;;;18.50;15.40;;;;;;;;;;5019564;28;20719;-80
2022/11/13 12:41:41;;;;;;;15.20;13.07;;;;;;;;;;5025198;28;20190;-77
2022/11/13 12:44:29;;;;;;;14.57;13.03;;;;;;;;;;5028139;28;20181;-77
2022/11/13 12:47:15;;;;;;;17.17;14.87;;;;;;;;;;5007739;28;20195;-77
2022/11/13 12:50:21;;;;;;;15.90;13.23;;;;;;;;;;5021413;28;20179;-77
2022/11/13 12:53:08;;;;;;;17.00;14.23;;;;;;;;;;5024640;28;20784;-78
2022/11/13 12:55:59;;;;;;;15.80;14.10;;;;;;;;;;5025756;28;20345;-80
2022/11/13 12:59:12;;;;;;;14.90;13.30;;;;;;;;;;5013229;28;20716;-80
2022/11/13 13:02:17;;;;;;;14.30;12.80;;;;;;;;;;4996827;28;20224;-80
2022/11/13 13:05:02;;;;;;;14.07;12.63;;;;;;;;;;5012323;28;20202;-80
2022/11/13 13:07:50;;;;;;;13.67;12.37;;;;;;;;;;5011350;28;20199;-80
2022/11/13 13:10:47;;;;;;;12.83;11.60;;;;;;;;;;5011584;28;20182;-78
2022/11/13 13:13:35;;;;;;;13.07;11.20;;;;;;;;;;5007622;28;20202;-78
2022/11/13 13:16:24;;;;;;;12.57;11.37;;;;;;;;;;5024291;28;20237;-78
2022/11/13 13:19:20;;;;;;;12.23;11.07;;;;;;;;;;5026151;28;20653;-82
2022/11/13 13:22:09;;;;;;;13.87;11.60;;;;;;;;;;5029211;28;20175;-80
2022/11/13 13:24:59;;;;;;;13.43;12.13;;;;;;;;;;5042353;28;20182;-83
2022/11/13 13:27:55;;;;;;;12.17;10.97;;;;;;;;;;5029327;28;20209;-82
2022/11/13 13:30:53;;;;;;;12.40;11.20;;;;;;;;;;5010213;28;20219;-83
2022/11/13 13:33:49;;;;;;;13.63;12.23;;;;;;;;;;5021980;28;20198;-81
2022/11/13 13:36:45;;;;;;;13.23;12.03;;;;;;;;;;5020010;28;20207;-83
2022/11/13 13:39:49;;;;;;;14.77;12.60;;;;;;;;;;5024406;28;20670;-81
2022/11/13 13:42:52;;;;;;;13.97;12.60;;;;;;;;;;5026876;28;20572;-81
2022/11/13 13:45:56;;;;;;;12.70;11.40;;;;;;;;;;5023258;28;20280;-81
2022/11/13 13:48:42;;;;;;;12.63;11.33;;;;;;;;;;5032519;28;20218;-83
2022/11/13 13:51:30;;;;;;;13.27;11.87;;;;;;;;;;5033304;28;20169;-83
2022/11/13 13:54:17;;;;;;;13.60;12.20;;;;;;;;;;5032786;28;20178;-83
2022/11/13 13:57:02;;;;;;;13.23;11.83;;;;;;;;;;5027447;28;20745;-83
2022/11/13 13:59:47;;;;;;;13.70;12.23;;;;;;;;;;5025921;28;20201;-83
2022/11/13 14:02:32;;;;;;;12.90;11.57;;;;;;;;;;5028091;28;20182;-83
2022/11/13 14:05:23;;;;;;;12.93;11.57;;;;;;;;;;5048186;28;21598;-83
2022/11/13 14:08:16;;;;;;;13.20;11.40;;;;;;;;;;5049238;28;20202;-80
2022/11/13 14:11:20;;;;;;;13.37;11.97;;;;;;;;;;5026313;28;20171;-80
2022/11/13 14:14:19;;;;;;;12.57;11.27;;;;;;;;;;5025863;28;20246;-81
2022/11/13 14:17:04;;;;;;;12.60;11.30;;;;;;;;;;5024694;28;20230;-81
2022/11/13 14:19:50;;;;;;;13.63;12.23;;;;;;;;;;5023687;28;20170;-81
2022/11/13 14:22:34;;;;;;;12.57;11.27;;;;;;;;;;5024702;28;20241;-80
2022/11/13 14:25:26;;;;;;;12.37;11.17;;;;;;;;;;5034153;28;20578;-80
2022/11/13 14:28:13;;;;;;;13.33;11.93;;;;;;;;;;5033248;28;20210;-81
2022/11/13 14:31:00;;;;;;;12.70;11.33;;;;;;;;;;5027480;28;20612;-83
2022/11/13 14:33:46;;;;;;;12.83;11.53;;;;;;;;;;5025552;28;20218;-82
2022/11/13 14:36:33;;;;;;;13.43;12.03;;;;;;;;;;5024526;28;20264;-76
2022/11/13 14:39:29;;;;;;;12.97;11.67;;;;;;;;;;5033522;28;20188;-82
2022/11/13 14:42:19;;;;;;;13.83;11.63;;;;;;;;;;5032358;28;20235;-81
2022/11/13 14:45:21;;;;;;;14.03;12.63;;;;;;;;;;5027614;28;20182;-81
2022/11/13 14:48:18;;;;;;;14.43;12.60;;;;;;;;;;5032736;28;20209;-81
2022/11/13 14:51:05;;;;;;;13.50;11.73;;;;;;;;;;5014218;28;20207;-84
2022/11/13 14:53:57;;;;;;;14.63;12.53;;;;;;;;;;5044307;28;20186;-85
2022/11/13 14:56:42;;;;;;;12.07;10.47;;;;;;;;;;5023547;28;20565;-78
2022/11/13 14:59:28;;;;;;;13.77;12.27;;;;;;;;;;5024886;28;20183;-79
2022/11/13 15:02:13;;;;;;;14.10;12.60;;;;;;;;;;5025062;28;20178;-77
2022/11/13 15:04:58;;;;;;;13.87;12.47;;;;;;;;;;5043725;28;20546;-76
2022/11/13 15:07:44;;;;;;;15.27;12.53;;;;;;;;;;5029767;28;20199;-77
2022/11/13 15:10:30;;;;;;;15.47;13.70;;;;;;;;;;5028651;28;20179;-76
2022/11/13 15:13:16;;;;;;;15.57;13.47;;;;;;;;;;5015270;28;20256;-78
2022/11/13 15:16:01;;;;;;;16.63;14.07;;;;;;;;;;5016556;28;20216;-81
2022/11/13 15:18:54;;;;;;;14.53;12.97;;;;;;;;;;5021694;28;20543;-77
2022/11/13 15:21:39;;;;;;;15.70;14.00;;;;;;;;;;5028941;28;20186;-78
2022/11/13 15:24:24;;;;;;;16.87;13.67;;;;;;;;;;5030232;28;20185;-76
2022/11/13 15:27:13;;;;;;;16.83;14.60;;;;;;;;;;5029715;28;20202;-79
2022/11/13 15:29:57;;;;;;;20.57;15.33;;;;;;;;;;5030117;28;20270;-77
2022/11/13 15:32:42;;;;;;;19.73;16.27;;;;;;;;;;5032264;28;20190;-76
2022/11/13 15:35:27;;;;;;;21.53;16.07;;;;;;;;;;5019206;28;20230;-77
2022/11/13 15:38:12;;;;;;;23.03;17.73;;;;;;;;;;5026211;28;20193;-77
2022/11/13 15:40:56;;;;;;;21.33;16.93;;;;;;;;;;5013652;28;20176;-77
2022/11/13 15:43:43;;;;;;;22.27;17.30;;;;;;;;;;5010104;28;20183;-77
2022/11/13 15:46:28;;;;;;;25.73;20.53;;;;;;;;;;5022070;28;20210;-77
2022/11/13 15:49:13;;;;;;;25.40;21.00;;;;;;;;;;5029799;28;20771;-77
2022/11/13 15:51:58;;;;;;;25.80;20.07;;;;;;;;;;5028060;28;20185;-77
2022/11/13 15:54:43;;;;;;;21.27;17.07;;;;;;;;;;5029643;28;20163;-77
2022/11/13 15:57:29;;;;;;;34.23;30.67;;;;;;;;;;5029100;28;20646;-78
2022/11/13 16:00:14;;;;;;;27.40;24.50;;;;;;;;;;5028640;28;20170;-76
2022/11/13 16:02:59;;;;;;;27.57;23.80;;;;;;;;;;5028485;28;20179;-77
2022/11/13 16:05:43;;;;;;;29.20;24.97;;;;;;;;;;5028999;28;20191;-77
2022/11/13 16:08:28;;;;;;;25.73;22.83;;;;;;;;;;5043088;28;20198;-78
2022/11/13 16:11:14;;;;;;;20.50;18.27;;;;;;;;;;5049141;28;20161;-76
2022/11/13 16:13:59;;;;;;;19.95;17.85;;;;;;;;;;5048210;28;20927;-77